Time;durP1;ratioP1;P1;durP2;ratioP2;P2;SDS_P1;SDS_P2;PMS_P1;PMS_P2;Temp;Humidity;BMP_temperature;BMP_pressure;BME280_temperature;BME280_humidity;BME280_pressure;Samples;Min_cycle;Max_cycle;Signal;HPM_P1;HPM_P2
2024/02/29 00:02:04;;;;;;;;;;;;;;;;;;5103180;28;20502;-77
2024/02/29 00:04:33;;;;;;;;;;;;;;;;;;5111994;28;19927;-77
2024/02/29 00:07:00;;;;;;;;;;;;;;;;;;5108027;28;19928;-76
2024/02/29 00:09:27;;;;;;;;;;;;;;;;;;5111457;28;19927;-76
2024/02/29 00:11:54;;;;;;;;;;;;;;;;;;5107057;27;19932;-76
2024/02/29 00:14:21;;;;;;;;;;;;;;;;;;5110831;28;20322;-76
2024/02/29 00:16:50;;;;;;;;;;;;;;;;;;5097362;28;19928;-78
2024/02/29 00:19:17;;;;;;;;;;;;;;;;;;5104718;28;19947;-77
2024/02/29 00:21:44;;;;;;;;;;;;;;;;;;5109577;28;19923;-76
2024/02/29 00:24:11;;;;;;;;;;;;;;;;;;5099760;28;20015;-77
2024/02/29 00:26:38;;;;;;;;;;;;;;;;;;5111027;28;19928;-76
2024/02/29 00:29:05;;;;;;;;;;;;;;;;;;5098472;28;20906;-77
2024/02/29 00:31:32;;;;;;;;;;;;;;;;;;5113202;28;19932;-77
2024/02/29 00:33:59;;;;;;;;;;;;;;;;;;5103885;28;19960;-76
2024/02/29 00:36:26;;;;;;;;;;;;;;;;;;5099866;28;20428;-78
2024/02/29 00:38:54;;;;;;;;;;;;;;;;;;5103521;28;20011;-76
2024/02/29 00:41:21;;;;;;;;;;;;;;;;;;5102885;28;20320;-76
2024/02/29 00:43:48;;;;;;;;;;;;;;;;;;5103442;28;20022;-77
2024/02/29 00:46:15;;;;;;;;;;;;;;;;;;5106398;28;19932;-77
2024/02/29 00:48:42;;;;;;;;;;;;;;;;;;5109311;28;19924;-79
2024/02/29 00:51:09;;;;;;;;;;;;;;;;;;5102254;28;19985;-78
2024/02/29 00:53:36;;;;;;;;;;;;;;;;;;5106478;28;19974;-78
2024/02/29 00:56:03;;;;;;;;;;;;;;;;;;5107366;28;19967;-77
2024/02/29 00:58:30;;;;;;;;;;;;;;;;;;5109036;28;19993;-79
2024/02/29 01:00:58;;;;;;;;;;;;;;;;;;5098911;28;19931;-79
2024/02/29 01:03:25;;;;;;;;;;;;;;;;;;5101690;28;19928;-76
2024/02/29 01:05:52;;;;;;;;;;;;;;;;;;5096697;28;19928;-79
2024/02/29 01:08:19;;;;;;;;;;;;;;;;;;5109523;28;20382;-77
2024/02/29 01:10:46;;;;;;;;;;;;;;;;;;5103018;28;19975;-76
2024/02/29 01:13:13;;;;;;;;;;;;;;;;;;5107006;28;19932;-75
2024/02/29 01:15:40;;;;;;;;;;;;;;;;;;5109772;28;20286;-75
2024/02/29 01:18:07;;;;;;;;;;;;;;;;;;5108111;28;20481;-77
2024/02/29 01:20:34;;;;;;;;;;;;;;;;;;5107072;28;19985;-76
2024/02/29 01:23:01;;;;;;;;;;;;;;;;;;5106930;28;19928;-77
2024/02/29 01:25:28;;;;;;;;;;;;;;;;;;5105707;28;19935;-78
2024/02/29 01:27:56;;;;;;;;;;;;;;;;;;5108942;28;19935;-76
2024/02/29 01:30:23;;;;;;;;;;;;;;;;;;5107316;28;19932;-77
2024/02/29 01:32:50;;;;;;;;;;;;;;;;;;5092992;28;19981;-75
2024/02/29 01:35:17;;;;;;;;;;;;;;;;;;5108664;28;20417;-74
2024/02/29 01:37:44;;;;;;;;;;;;;;;;;;5107509;28;20035;-76
2024/02/29 01:40:11;;;;;;;;;;;;;;;;;;5102637;28;19927;-75
2024/02/29 01:42:38;;;;;;;;;;;;;;;;;;5099547;28;20356;-77
2024/02/29 01:45:06;;;;;;;;;;;;;;;;;;5103284;28;20000;-77
2024/02/29 01:47:33;;;;;;;;;;;;;;;;;;5106313;28;19928;-77
2024/02/29 01:50:00;;;;;;;;;;;;;;;;;;5110372;28;19927;-76
2024/02/29 01:52:27;;;;;;;;;;;;;;;;;;5099928;28;20008;-76
2024/02/29 01:54:54;;;;;;;;;;;;;;;;;;5101976;28;19979;-76
2024/02/29 01:57:21;;;;;;;;;;;;;;;;;;5104179;28;20000;-76
2024/02/29 01:59:48;;;;;;;;;;;;;;;;;;5102574;28;20013;-78
2024/02/29 02:02:15;;;;;;;;;;;;;;;;;;5110469;28;19928;-75
2024/02/29 02:04:42;;;;;;;;;;;;;;;;;;5102011;28;19928;-76
2024/02/29 02:07:09;;;;;;;;;;;;;;;;;;5106151;28;20404;-77
2024/02/29 02:09:41;;;;;;;;;;;;;;;;;;5105001;28;20291;-76
2024/02/29 02:12:10;;;;;;;;;;;;;;;;;;5109295;28;19927;-78
2024/02/29 02:14:38;;;;;;;;;;;;;;;;;;5101298;28;20042;-77
2024/02/29 02:17:05;;;;;;;;;;;;;;;;;;5108255;28;19928;-75
2024/02/29 02:19:32;;;;;;;;;;;;;;;;;;5107566;28;20302;-77
2024/02/29 02:21:59;;;;;;;;;;;;;;;;;;5103136;28;20014;-75
2024/02/29 02:24:27;;;;;;;;;;;;;;;;;;5098687;27;19928;-76
2024/02/29 02:26:54;;;;;;;;;;;;;;;;;;5103906;28;19928;-77
2024/02/29 02:29:21;;;;;;;;;;;;;;;;;;5096499;28;19932;-76
2024/02/29 02:31:48;;;;;;;;;;;;;;;;;;5103794;28;19981;-75
2024/02/29 02:34:15;;;;;;;;;;;;;;;;;;5101481;28;20016;-78
2024/02/29 02:36:42;;;;;;;;;;;;;;;;;;5110012;28;19985;-77
2024/02/29 02:39:09;;;;;;;;;;;;;;;;;;5107294;28;20394;-76
2024/02/29 02:41:36;;;;;;;;;;;;;;;;;;5110311;28;19943;-78
2024/02/29 02:44:03;;;;;;;;;;;;;;;;;;5109729;28;19974;-78
2024/02/29 02:46:30;;;;;;;;;;;;;;;;;;5105647;28;19928;-76
2024/02/29 02:48:57;;;;;;;;;;;;;;;;;;5093337;28;20398;-75
2024/02/29 02:51:24;;;;;;;;;;;;;;;;;;5094023;28;20360;-77
2024/02/29 02:53:51;;;;;;;;;;;;;;;;;;5101163;28;20364;-77
2024/02/29 02:56:18;;;;;;;;;;;;;;;;;;5103362;28;19981;-78
2024/02/29 02:58:45;;;;;;;;;;;;;;;;;;5109640;28;20007;-77
2024/02/29 03:01:12;;;;;;;;;;;;;;;;;;5105566;28;19928;-74
2024/02/29 03:03:40;;;;;;;;;;;;;;;;;;5105355;28;19943;-76
2024/02/29 03:06:07;;;;;;;;;;;;;;;;;;5105878;28;20403;-75
2024/02/29 03:08:34;;;;;;;;;;;;;;;;;;5101367;28;20294;-75
2024/02/29 03:11:01;;;;;;;;;;;;;;;;;;5107515;28;20283;-75
2024/02/29 03:13:28;;;;;;;;;;;;;;;;;;5105455;28;20011;-76
2024/02/29 03:15:55;;;;;;;;;;;;;;;;;;5089132;28;20357;-76
2024/02/29 03:18:22;;;;;;;;;;;;;;;;;;5089032;28;19997;-76
2024/02/29 03:20:49;;;;;;;;;;;;;;;;;;5093905;28;19928;-76
2024/02/29 03:23:17;;;;;;;;;;;;;;;;;;5097267;28;19938;-77
2024/02/29 03:25:44;;;;;;;;;;;;;;;;;;5095310;28;20025;-76
2024/02/29 03:28:11;;;;;;;;;;;;;;;;;;5101601;28;20018;-74
2024/02/29 03:30:38;;;;;;;;;;;;;;;;;;5096980;28;19928;-76
2024/02/29 03:33:06;;;;;;;;;;;;;;;;;;5097761;28;20072;-76
2024/02/29 03:35:33;;;;;;;;;;;;;;;;;;5106276;28;20366;-76
2024/02/29 03:38:00;;;;;;;;;;;;;;;;;;5108850;28;20398;-77
2024/02/29 03:40:27;;;;;;;;;;;;;;;;;;5103539;28;19932;-75
2024/02/29 03:42:54;;;;;;;;;;;;;;;;;;5093357;28;20015;-77
2024/02/29 03:45:21;;;;;;;;;;;;;;;;;;5097278;28;20007;-78
2024/02/29 03:47:48;;;;;;;;;;;;;;;;;;5102748;28;19928;-75
2024/02/29 03:50:15;;;;;;;;;;;;;;;;;;5098909;28;20010;-76
2024/02/29 03:52:42;;;;;;;;;;;;;;;;;;5098668;28;20507;-75
2024/02/29 03:55:09;;;;;;;;;;;;;;;;;;5093295;28;19974;-75
2024/02/29 03:57:36;;;;;;;;;;;;;;;;;;5104867;28;20006;-76
2024/02/29 04:00:10;;;;;;;;;;;;;;;;;;5103758;28;19928;-77
2024/02/29 04:02:37;;;;;;;;;;;;;;;;;;5096085;28;19932;-76
2024/02/29 04:05:04;;;;;;;;;;;;;;;;;;5107705;28;20018;-77
2024/02/29 04:07:31;;;;;;;;;;;;;;;;;;5104060;28;20041;-78
2024/02/29 04:09:58;;;;;;;;;;;;;;;;;;5103907;28;19975;-79
2024/02/29 04:12:25;;;;;;;;;;;;;;;;;;5098370;28;20003;-77
2024/02/29 04:14:52;;;;;;;;;;;;;;;;;;5096347;28;20694;-79
2024/02/29 04:17:19;;;;;;;;;;;;;;;;;;5112645;28;20018;-79
2024/02/29 04:19:47;;;;;;;;;;;;;;;;;;5093744;28;20006;-78
2024/02/29 04:22:14;;;;;;;;;;;;;;;;;;5109263;28;20118;-76
2024/02/29 04:24:41;;;;;;;;;;;;;;;;;;5112924;28;20295;-77
2024/02/29 04:27:08;;;;;;;;;;;;;;;;;;5107633;28;20407;-76
2024/02/29 04:29:35;;;;;;;;;;;;;;;;;;5093489;28;19924;-75
2024/02/29 04:32:02;;;;;;;;;;;;;;;;;;5103414;28;19928;-76
2024/02/29 04:34:29;;;;;;;;;;;;;;;;;;5097638;28;19928;-76
2024/02/29 04:36:56;;;;;;;;;;;;;;;;;;5110924;28;19927;-77
2024/02/29 04:39:23;;;;;;;;;;;;;;;;;;5104441;28;20402;-75
2024/02/29 04:41:50;;;;;;;;;;;;;;;;;;5104197;28;19967;-76
2024/02/29 04:44:18;;;;;;;;;;;;;;;;;;5104097;28;19969;-76
2024/02/29 04:46:45;;;;;;;;;;;;;;;;;;5106341;28;19934;-77
2024/02/29 04:49:12;;;;;;;;;;;;;;;;;;5103903;28;19928;-77
2024/02/29 04:51:39;;;;;;;;;;;;;;;;;;5105322;28;19928;-77
2024/02/29 04:54:06;;;;;;;;;;;;;;;;;;5108882;28;20395;-77
2024/02/29 04:56:35;;;;;;;;;;;;;;;;;;5111803;28;20026;-78
2024/02/29 04:59:04;;;;;;;;;;;;;;;;;;5094310;28;19928;-78
2024/02/29 05:01:31;;;;;;;;;;;;;;;;;;5100714;28;19935;-79
2024/02/29 05:03:58;;;;;;;;;;;;;;;;;;5109851;28;19931;-77
2024/02/29 05:06:25;;;;;;;;;;;;;;;;;;5097965;28;19928;-74
2024/02/29 05:08:52;;;;;;;;;;;;;;;;;;5107944;28;20007;-74
2024/02/29 05:11:19;;;;;;;;;;;;;;;;;;5101951;28;20015;-75
2024/02/29 05:13:46;;;;;;;;;;;;;;;;;;5111334;28;19971;-77
2024/02/29 05:16:13;;;;;;;;;;;;;;;;;;5104356;28;19939;-75
2024/02/29 05:18:41;;;;;;;;;;;;;;;;;;5109644;28;19997;-77
2024/02/29 05:21:08;;;;;;;;;;;;;;;;;;5101478;28;19958;-76
2024/02/29 05:23:35;;;;;;;;;;;;;;;;;;5100962;28;20466;-75
2024/02/29 05:26:03;;;;;;;;;;;;;;;;;;5108936;28;20045;-75
2024/02/29 05:28:30;;;;;;;;;;;;;;;;;;5105651;28;20412;-75
2024/02/29 05:30:57;;;;;;;;;;;;;;;;;;5100963;28;20034;-76
2024/02/29 05:33:24;;;;;;;;;;;;;;;;;;5100344;28;20376;-79
2024/02/29 05:35:51;;;;;;;;;;;;;;;;;;5104487;28;19927;-76
2024/02/29 05:38:18;;;;;;;;;;;;;;;;;;5109630;28;19936;-76
2024/02/29 05:40:47;;;;;;;;;;;;;;;;;;5105461;28;19927;-77
2024/02/29 05:43:14;;;;;;;;;;;;;;;;;;5097626;28;20508;-79
2024/02/29 05:45:41;;;;;;;;;;;;;;;;;;5101536;28;19928;-81
2024/02/29 05:48:08;;;;;;;;;;;;;;;;;;5108862;28;19976;-72
2024/02/29 05:50:35;;;;;;;;;;;;;;;;;;5110701;28;20015;-71
2024/02/29 05:53:02;;;;;;;;;;;;;;;;;;5107284;28;19967;-73
2024/02/29 05:55:29;;;;;;;;;;;;;;;;;;5101890;28;19931;-72
2024/02/29 05:57:56;;;;;;;;;;;;;;;;;;5098276;28;19927;-73
2024/02/29 06:00:23;;;;;;;;;;;;;;;;;;5109999;28;19923;-73
2024/02/29 06:02:50;;;;;;;;;;;;;;;;;;5107002;28;20022;-71
2024/02/29 06:05:17;;;;;;;;;;;;;;;;;;5103673;28;20003;-72
2024/02/29 06:07:45;;;;;;;;;;;;;;;;;;5108294;28;19947;-74
2024/02/29 06:10:12;;;;;;;;;;;;;;;;;;5101087;28;19971;-73
2024/02/29 06:12:39;;;;;;;;;;;;;;;;;;5108873;28;19986;-72
2024/02/29 06:15:07;;;;;;;;;;;;;;;;;;5097555;28;19971;-73
2024/02/29 06:17:34;;;;;;;;;;;;;;;;;;5098878;28;20414;-73
2024/02/29 06:20:01;;;;;;;;;;;;;;;;;;5110098;28;20023;-74
2024/02/29 06:22:28;;;;;;;;;;;;;;;;;;5109899;28;19993;-73
2024/02/29 06:24:56;;;;;;;;;;;;;;;;;;5109387;28;19928;-73
2024/02/29 06:27:23;;;;;;;;;;;;;;;;;;5102156;28;20402;-73
2024/02/29 06:29:50;;;;;;;;;;;;;;;;;;5109128;28;20351;-73
2024/02/29 06:32:18;;;;;;;;;;;;;;;;;;5107390;28;20010;-73
2024/02/29 06:34:45;;;;;;;;;;;;;;;;;;5096639;28;19949;-73
2024/02/29 06:37:12;;;;;;;;;;;;;;;;;;5101869;28;19927;-75
2024/02/29 06:39:39;;;;;;;;;;;;;;;;;;5095464;28;20019;-72
2024/02/29 06:42:06;;;;;;;;;;;;;;;;;;5109602;28;20038;-72
2024/02/29 06:44:33;;;;;;;;;;;;;;;;;;5109635;28;19971;-72
2024/02/29 06:47:00;;;;;;;;;;;;;;;;;;5097567;28;19974;-73
2024/02/29 06:49:27;;;;;;;;;;;;;;;;;;5096700;28;20276;-72
2024/02/29 06:51:54;;;;;;;;;;;;;;;;;;5096953;28;20011;-73
2024/02/29 06:54:21;;;;;;;;;;;;;;;;;;5107915;28;19954;-73
2024/02/29 06:56:48;;;;;;;;;;;;;;;;;;5108108;28;20397;-73
2024/02/29 06:59:15;;;;;;;;;;;;;;;;;;5109575;28;19934;-73
2024/02/29 07:01:42;;;;;;;;;;;;;;;;;;5108164;28;19934;-72
2024/02/29 07:04:09;;;;;;;;;;;;;;;;;;5101592;28;19963;-74
2024/02/29 07:06:36;;;;;;;;;;;;;;;;;;5106269;28;20639;-71
2024/02/29 07:09:03;;;;;;;;;;;;;;;;;;5096267;28;19928;-71
2024/02/29 07:11:30;;;;;;;;;;;;;;;;;;5098301;28;20321;-71
2024/02/29 07:13:58;;;;;;;;;;;;;;;;;;5108654;28;19928;-74
2024/02/29 07:16:25;;;;;;;;;;;;;;;;;;5100209;28;19927;-71
2024/02/29 07:18:52;;;;;;;;;;;;;;;;;;5106317;28;19995;-77
2024/02/29 07:21:19;;;;;;;;;;;;;;;;;;5101998;28;19932;-72
2024/02/29 07:23:46;;;;;;;;;;;;;;;;;;5100391;28;19939;-73
2024/02/29 07:26:13;;;;;;;;;;;;;;;;;;5107718;28;20018;-74
2024/02/29 07:28:40;;;;;;;;;;;;;;;;;;5104201;28;19966;-72
2024/02/29 07:31:07;;;;;;;;;;;;;;;;;;5102697;28;19963;-72
2024/02/29 07:33:37;;;;;;;;;;;;;;;;;;5102046;28;19927;-73
2024/02/29 07:36:04;;;;;;;;;;;;;;;;;;5098171;28;19923;-77
2024/02/29 07:38:31;;;;;;;;;;;;;;;;;;5104092;28;19961;-83
2024/02/29 07:40:58;;;;;;;;;;;;;;;;;;5095666;28;20113;-78
2024/02/29 07:43:25;;;;;;;;;;;;;;;;;;5108023;28;19927;-77
2024/02/29 07:45:52;;;;;;;;;;;;;;;;;;5109597;28;20486;-80
2024/02/29 07:48:19;;;;;;;;;;;;;;;;;;5107412;28;19973;-78
2024/02/29 07:50:46;;;;;;;;;;;;;;;;;;5107328;28;20474;-79
2024/02/29 07:53:13;;;;;;;;;;;;;;;;;;5103876;28;20007;-81
2024/02/29 07:55:40;;;;;;;;;;;;;;;;;;5107421;28;19986;-81
2024/02/29 07:58:07;;;;;;;;;;;;;;;;;;5101068;28;20035;-81
2024/02/29 08:00:36;;;;;;;;;;;;;;;;;;5103495;28;20023;-82
2024/02/29 08:03:04;;;;;;;;;;;;;;;;;;5109177;28;19934;-78
2024/02/29 08:05:31;;;;;;;;;;;;;;;;;;5107743;28;19934;-81
2024/02/29 08:07:58;;;;;;;;;;;;;;;;;;5097287;28;19971;-82
2024/02/29 08:10:26;;;;;;;;;;;;;;;;;;5106759;28;19935;-79
2024/02/29 08:12:53;;;;;;;;;;;;;;;;;;5107890;28;19943;-80
2024/02/29 08:15:20;;;;;;;;;;;;;;;;;;5108992;28;19932;-81
2024/02/29 08:17:47;;;;;;;;;;;;;;;;;;5106573;28;20040;-81
2024/02/29 08:20:14;;;;;;;;;;;;;;;;;;5110559;28;19928;-81
2024/02/29 08:22:41;;;;;;;;;;;;;;;;;;5107479;28;19931;-80
2024/02/29 08:25:09;;;;;;;;;;;;;;;;;;5107485;28;19928;-82
2024/02/29 08:27:37;;;;;;;;;;;;;;;;;;5104864;28;20022;-80
2024/02/29 08:30:04;;;;;;;;;;;;;;;;;;5109438;28;19934;-79
2024/02/29 08:32:31;;;;;;;;;;;;;;;;;;5105888;28;20283;-82
2024/02/29 08:34:58;;;;;;;;;;;;;;;;;;5107109;28;19956;-81
2024/02/29 08:37:25;;;;;;;;;;;;;;;;;;5097706;28;19935;-79
2024/02/29 08:39:52;;;;;;;;;;;;;;;;;;5107899;28;20325;-84
2024/02/29 08:42:19;;;;;;;;;;;;;;;;;;5108648;28;20054;-81
2024/02/29 08:44:46;;;;;;;;;;;;;;;;;;5108436;28;19932;-82
2024/02/29 08:47:13;;;;;;;;;;;;;;;;;;5105966;28;20023;-81
2024/02/29 08:49:40;;;;;;;;;;;;;;;;;;5112893;28;20373;-80
2024/02/29 08:52:08;;;;;;;;;;;;;;;;;;5107988;28;19957;-78
2024/02/29 08:54:36;;;;;;;;;;;;;;;;;;5100758;28;19934;-79
2024/02/29 08:57:04;;;;;;;;;;;;;;;;;;5108565;28;19934;-78
2024/02/29 08:59:32;;;;;;;;;;;;;;;;;;5108873;28;20372;-74
2024/02/29 09:01:59;;;;;;;;;;;;;;;;;;5100577;28;20403;-73
2024/02/29 09:04:26;;;;;;;;;;;;;;;;;;5104486;28;19934;-76
2024/02/29 09:06:53;;;;;;;;;;;;;;;;;;5104747;28;20043;-76
2024/02/29 09:09:20;;;;;;;;;;;;;;;;;;5103970;28;19931;-87
2024/02/29 09:11:47;;;;;;;;;;;;;;;;;;5110882;28;20032;-85
2024/02/29 09:14:14;;;;;;;;;;;;;;;;;;5104463;28;19927;-84
2024/02/29 09:16:41;;;;;;;;;;;;;;;;;;5112202;28;20390;-84
2024/02/29 09:19:08;;;;;;;;;;;;;;;;;;5112620;28;19980;-84
2024/02/29 09:21:35;;;;;;;;;;;;;;;;;;5105882;28;20019;-82
2024/02/29 09:24:02;;;;;;;;;;;;;;;;;;5105975;28;19927;-83
2024/02/29 09:26:30;;;;;;;;;;;;;;;;;;5110789;28;19934;-83
2024/02/29 09:28:58;;;;;;;;;;;;;;;;;;5099821;28;19928;-84
2024/02/29 09:31:25;;;;;;;;;;;;;;;;;;5112720;28;19992;-85
2024/02/29 09:33:53;;;;;;;;;;;;;;;;;;5103913;28;20026;-84
2024/02/29 09:36:21;;;;;;;;;;;;;;;;;;5104760;28;19989;-84
2024/02/29 09:38:48;;;;;;;;;;;;;;;;;;5100317;28;19924;-84
2024/02/29 09:41:15;;;;;;;;;;;;;;;;;;5110547;28;19986;-86
2024/02/29 09:43:44;;;;;;;;;;;;;;;;;;5113812;28;20004;-85
2024/02/29 09:46:11;;;;;;;;;;;;;;;;;;5105825;28;20345;-90
2024/02/29 09:48:38;;;;;;;;;;;;;;;;;;5098269;28;20029;-89
2024/02/29 09:51:05;;;;;;;;;;;;;;;;;;5101367;28;19944;-89
2024/02/29 09:53:34;;;;;;;;;;;;;;;;;;5115405;28;20548;-89
2024/02/29 09:56:01;;;;;;;;;;;;;;;;;;5111418;28;19928;-89
2024/02/29 09:58:28;;;;;;;;;;;;;;;;;;5113492;28;20011;-87
2024/02/29 10:00:55;;;;;;;;;;;;;;;;;;5110799;28;20014;-81
2024/02/29 10:03:22;;;;;;;;;;;;;;;;;;5110833;28;20007;-86
2024/02/29 10:05:49;;;;;;;;;;;;;;;;;;5111703;28;20010;-84
2024/02/29 10:08:17;;;;;;;;;;;;;;;;;;5109236;28;20412;-86
2024/02/29 10:10:44;;;;;;;;;;;;;;;;;;5108308;28;19979;-84
2024/02/29 10:13:11;;;;;;;;;;;;;;;;;;5105087;28;19983;-83
2024/02/29 10:15:38;;;;;;;;;;;;;;;;;;5110429;28;20819;-81
2024/02/29 10:18:05;;;;;;;;;;;;;;;;;;5100706;28;20388;-77
2024/02/29 10:20:33;;;;;;;;;;;;;;;;;;5110035;28;20012;-82
2024/02/29 10:23:00;;;;;;;;;;;;;;;;;;5107453;28;19950;-82
2024/02/29 10:25:27;;;;;;;;;;;;;;;;;;5109095;28;20015;-80
2024/02/29 10:27:54;;;;;;;;;;;;;;;;;;5104878;28;19935;-82
2024/02/29 10:30:21;;;;;;;;;;;;;;;;;;5106333;28;20125;-84
2024/02/29 10:32:48;;;;;;;;;;;;;;;;;;5101227;28;19931;-84
2024/02/29 10:35:15;;;;;;;;;;;;;;;;;;5111586;28;20390;-84
2024/02/29 10:37:42;;;;;;;;;;;;;;;;;;5107641;28;20018;-83
2024/02/29 10:40:09;;;;;;;;;;;;;;;;;;5100276;28;20023;-84
2024/02/29 10:42:36;;;;;;;;;;;;;;;;;;5110089;28;19931;-79
2024/02/29 10:45:03;;;;;;;;;;;;;;;;;;5102923;28;20309;-82
2024/02/29 10:47:30;;;;;;;;;;;;;;;;;;5111451;28;20379;-82
2024/02/29 10:49:57;;;;;;;;;;;;;;;;;;5101388;28;20039;-80
2024/02/29 10:52:24;;;;;;;;;;;;;;;;;;5093599;28;19975;-81
2024/02/29 10:54:51;;;;;;;;;;;;;;;;;;5108893;28;19975;-80
2024/02/29 10:57:18;;;;;;;;;;;;;;;;;;5107997;28;20002;-80
2024/02/29 10:59:45;;;;;;;;;;;;;;;;;;5091585;28;19931;-80
2024/02/29 11:02:13;;;;;;;;;;;;;;;;;;5102453;28;20403;-81
2024/02/29 11:04:40;;;;;;;;;;;;;;;;;;5105186;28;20003;-82
2024/02/29 11:07:07;;;;;;;;;;;;;;;;;;5105251;28;20026;-80
2024/02/29 11:09:34;;;;;;;;;;;;;;;;;;5101865;28;20386;-82
2024/02/29 11:12:02;;;;;;;;;;;;;;;;;;5098579;28;20018;-81
2024/02/29 11:14:29;;;;;;;;;;;;;;;;;;5101736;28;20306;-81
2024/02/29 11:16:56;;;;;;;;;;;;;;;;;;5099705;28;19934;-80
2024/02/29 11:19:23;;;;;;;;;;;;;;;;;;5108688;28;19943;-81
2024/02/29 11:21:50;;;;;;;;;;;;;;;;;;5104859;28;19974;-80
2024/02/29 11:24:17;;;;;;;;;;;;;;;;;;5106668;28;20394;-80
2024/02/29 11:26:44;;;;;;;;;;;;;;;;;;5109608;28;19928;-83
2024/02/29 11:29:12;;;;;;;;;;;;;;;;;;5109253;28;20062;-82
2024/02/29 11:31:39;;;;;;;;;;;;;;;;;;5104146;28;19934;-82
2024/02/29 11:34:08;;;;;;;;;;;;;;;;;;5107189;28;19967;-84
2024/02/29 11:36:35;;;;;;;;;;;;;;;;;;5114946;28;20207;-83
2024/02/29 11:39:03;;;;;;;;;;;;;;;;;;5110323;28;20409;-85
2024/02/29 11:41:30;;;;;;;;;;;;;;;;;;5118926;27;20263;-85
2024/02/29 11:43:57;;;;;;;;;;;;;;;;;;5114703;28;20425;-85
2024/02/29 11:46:25;;;;;;;;;;;;;;;;;;5107929;28;20038;-83
2024/02/29 11:48:53;;;;;;;;;;;;;;;;;;5104816;28;20007;-85
2024/02/29 11:51:20;;;;;;;;;;;;;;;;;;5112795;28;19950;-85
2024/02/29 11:53:47;;;;;;;;;;;;;;;;;;5106301;28;19971;-85
2024/02/29 11:56:14;;;;;;;;;;;;;;;;;;5115610;28;20444;-84
2024/02/29 11:58:41;;;;;;;;;;;;;;;;;;5115807;28;19924;-84
2024/02/29 12:01:11;;;;;;;;;;;;;;;;;;5100314;27;20503;-85
2024/02/29 12:03:38;;;;;;;;;;;;;;;;;;5111741;28;19928;-86
2024/02/29 12:06:05;;;;;;;;;;;;;;;;;;5119012;28;20379;-84
2024/02/29 12:08:32;;;;;;;;;;;;;;;;;;5112075;28;19931;-83
2024/02/29 12:10:59;;;;;;;;;;;;;;;;;;5105079;28;19928;-82
2024/02/29 12:13:26;;;;;;;;;;;;;;;;;;5102694;28;19974;-82
2024/02/29 12:15:53;;;;;;;;;;;;;;;;;;5108075;28;20019;-83
2024/02/29 12:18:20;;;;;;;;;;;;;;;;;;5116419;28;19952;-84
2024/02/29 12:20:47;;;;;;;;;;;;;;;;;;5111546;28;19977;-83
2024/02/29 12:23:15;;;;;;;;;;;;;;;;;;5111560;28;20031;-83
2024/02/29 12:25:43;;;;;;;;;;;;;;;;;;5102971;28;19927;-84
2024/02/29 12:28:10;;;;;;;;;;;;;;;;;;5116176;28;19928;-90
2024/02/29 12:30:37;;;;;;;;;;;;;;;;;;5110047;28;19934;-86
2024/02/29 12:33:04;;;;;;;;;;;;;;;;;;5129533;27;19924;-84
2024/02/29 12:35:31;;;;;;;;;;;;;;;;;;5115453;28;19973;-84
2024/02/29 12:37:58;;;;;;;;;;;;;;;;;;5109671;27;19928;-84
2024/02/29 12:40:25;;;;;;;;;;;;;;;;;;5109672;28;20011;-83
2024/02/29 12:42:52;;;;;;;;;;;;;;;;;;5105047;28;19974;-81
2024/02/29 12:45:19;;;;;;;;;;;;;;;;;;5104347;28;20351;-85
2024/02/29 12:47:46;;;;;;;;;;;;;;;;;;5102157;28;19924;-85
2024/02/29 12:50:13;;;;;;;;;;;;;;;;;;5107965;28;19928;-83
2024/02/29 12:52:40;;;;;;;;;;;;;;;;;;5107005;28;20378;-85
2024/02/29 12:55:07;;;;;;;;;;;;;;;;;;5110936;28;19928;-85
2024/02/29 12:57:34;;;;;;;;;;;;;;;;;;5113844;28;20398;-82
2024/02/29 13:00:02;;;;;;;;;;;;;;;;;;5114095;28;19927;-84
2024/02/29 13:02:31;;;;;;;;;;;;;;;;;;5113965;27;19923;-80
2024/02/29 13:04:58;;;;;;;;;;;;;;;;;;5105035;28;20540;-80
2024/02/29 13:07:25;;;;;;;;;;;;;;;;;;5112245;28;19968;-79
2024/02/29 13:09:52;;;;;;;;;;;;;;;;;;5098456;28;20373;-81
2024/02/29 13:12:19;;;;;;;;;;;;;;;;;;5108104;28;20039;-80
2024/02/29 13:14:46;;;;;;;;;;;;;;;;;;5113046;28;20469;-78
2024/02/29 13:17:13;;;;;;;;;;;;;;;;;;5113840;28;20031;-85
2024/02/29 13:19:40;;;;;;;;;;;;;;;;;;5113198;28;19927;-82
2024/02/29 13:22:07;;;;;;;;;;;;;;;;;;5110102;28;20014;-84
2024/02/29 13:24:34;;;;;;;;;;;;;;;;;;5113846;28;19935;-80
2024/02/29 13:27:01;;;;;;;;;;;;;;;;;;5103555;28;20386;-82
2024/02/29 13:29:29;;;;;;;;;;;;;;;;;;5112031;28;19934;-81
2024/02/29 13:31:56;;;;;;;;;;;;;;;;;;5105684;28;19935;-82
2024/02/29 13:34:23;;;;;;;;;;;;;;;;;;5108772;28;20015;-81
2024/02/29 13:36:50;;;;;;;;;;;;;;;;;;5111828;28;19924;-82
2024/02/29 13:39:17;;;;;;;;;;;;;;;;;;5106567;28;19928;-82
2024/02/29 13:41:45;;;;;;;;;;;;;;;;;;5100796;28;20018;-86
2024/02/29 13:44:12;;;;;;;;;;;;;;;;;;5111594;28;20030;-83
2024/02/29 13:46:39;;;;;;;;;;;;;;;;;;5106287;28;20014;-82
2024/02/29 13:49:08;;;;;;;;;;;;;;;;;;5109200;28;19931;-82
2024/02/29 13:51:35;;;;;;;;;;;;;;;;;;5106126;28;19954;-83
2024/02/29 13:54:02;;;;;;;;;;;;;;;;;;5114142;28;19950;-81
2024/02/29 13:56:29;;;;;;;;;;;;;;;;;;5112194;28;20014;-85
2024/02/29 13:58:56;;;;;;;;;;;;;;;;;;5100186;28;20398;-78
2024/02/29 14:01:23;;;;;;;;;;;;;;;;;;5109250;28;20689;-79
2024/02/29 14:03:51;;;;;;;;;;;;;;;;;;5101642;28;20379;-82
2024/02/29 14:06:18;;;;;;;;;;;;;;;;;;5108059;28;19931;-82
2024/02/29 14:08:46;;;;;;;;;;;;;;;;;;5105632;28;19931;-78
2024/02/29 14:11:13;;;;;;;;;;;;;;;;;;5100554;27;19947;-82
2024/02/29 14:13:40;;;;;;;;;;;;;;;;;;5110902;28;20018;-81
2024/02/29 14:16:07;;;;;;;;;;;;;;;;;;5103427;28;19967;-81
2024/02/29 14:18:33;;;;;;;;;;;;;;;;;;5110160;28;19924;-79
2024/02/29 14:21:00;;;;;;;;;;;;;;;;;;5101958;28;19986;-82
2024/02/29 14:23:27;;;;;;;;;;;;;;;;;;5112144;28;20275;-81
2024/02/29 14:25:54;;;;;;;;;;;;;;;;;;5103564;28;20363;-76
2024/02/29 14:28:24;;;;;;;;;;;;;;;;;;5111270;28;19927;-78
2024/02/29 14:30:51;;;;;;;;;;;;;;;;;;5113008;28;20015;-77
2024/02/29 14:33:18;;;;;;;;;;;;;;;;;;5111076;28;19979;-67
2024/02/29 14:35:46;;;;;;;;;;;;;;;;;;5108732;28;19967;-81
2024/02/29 14:38:13;;;;;;;;;;;;;;;;;;5103348;28;20410;-81
2024/02/29 14:40:40;;;;;;;;;;;;;;;;;;5103853;28;19974;-81
2024/02/29 14:43:07;;;;;;;;;;;;;;;;;;5106094;28;20367;-78
2024/02/29 14:45:35;;;;;;;;;;;;;;;;;;5108379;28;19923;-84
2024/02/29 14:48:02;;;;;;;;;;;;;;;;;;5111706;28;19931;-80
2024/02/29 14:50:29;;;;;;;;;;;;;;;;;;5107746;28;20344;-83
2024/02/29 14:52:56;;;;;;;;;;;;;;;;;;5098864;28;19928;-76
2024/02/29 14:55:23;;;;;;;;;;;;;;;;;;5107584;28;19932;-79
2024/02/29 14:57:50;;;;;;;;;;;;;;;;;;5106887;28;20363;-81
2024/02/29 15:00:17;;;;;;;;;;;;;;;;;;5101449;28;19973;-81
2024/02/29 15:02:45;;;;;;;;;;;;;;;;;;5110542;28;19969;-82
2024/02/29 15:05:13;;;;;;;;;;;;;;;;;;5103822;28;20567;-81
2024/02/29 15:07:40;;;;;;;;;;;;;;;;;;5101514;28;19934;-84
2024/02/29 15:10:07;;;;;;;;;;;;;;;;;;5103685;28;19950;-79
2024/02/29 15:12:34;;;;;;;;;;;;;;;;;;5103554;28;20445;-74
2024/02/29 15:15:01;;;;;;;;;;;;;;;;;;5109067;28;19934;-79
2024/02/29 15:17:28;;;;;;;;;;;;;;;;;;5101746;28;19978;-80
2024/02/29 15:19:56;;;;;;;;;;;;;;;;;;5108133;28;19959;-87
2024/02/29 15:22:24;;;;;;;;;;;;;;;;;;5101978;28;19996;-84
2024/02/29 15:24:51;;;;;;;;;;;;;;;;;;5106774;28;20014;-83
2024/02/29 15:27:18;;;;;;;;;;;;;;;;;;5102628;28;19932;-82
2024/02/29 15:29:48;;;;;;;;;;;;;;;;;;5100323;28;19934;-83
2024/02/29 15:32:15;;;;;;;;;;;;;;;;;;5100641;28;19927;-81
2024/02/29 15:34:42;;;;;;;;;;;;;;;;;;5104773;28;20006;-83
2024/02/29 15:37:09;;;;;;;;;;;;;;;;;;5106680;28;20027;-78
2024/02/29 15:39:36;;;;;;;;;;;;;;;;;;5107263;28;20297;-82
2024/02/29 15:42:04;;;;;;;;;;;;;;;;;;5103664;28;19934;-77
2024/02/29 15:44:31;;;;;;;;;;;;;;;;;;5105431;28;20343;-83
2024/02/29 15:46:58;;;;;;;;;;;;;;;;;;5105887;28;19963;-83
2024/02/29 15:49:25;;;;;;;;;;;;;;;;;;5104201;28;19931;-80
2024/02/29 15:51:52;;;;;;;;;;;;;;;;;;5102319;28;19928;-81
2024/02/29 15:54:21;;;;;;;;;;;;;;;;;;5110001;28;19924;-80
2024/02/29 15:56:48;;;;;;;;;;;;;;;;;;5105338;28;19977;-81
2024/02/29 15:59:15;;;;;;;;;;;;;;;;;;5106994;28;20464;-84
2024/02/29 16:01:42;;;;;;;;;;;;;;;;;;5102909;28;19946;-81
2024/02/29 16:04:10;;;;;;;;;;;;;;;;;;5108638;28;19947;-81
2024/02/29 16:06:37;;;;;;;;;;;;;;;;;;5109498;28;19982;-83
2024/02/29 16:09:04;;;;;;;;;;;;;;;;;;5111435;28;19927;-84
2024/02/29 16:11:31;;;;;;;;;;;;;;;;;;5107410;28;20403;-81
2024/02/29 16:13:58;;;;;;;;;;;;;;;;;;5113300;28;19953;-83
2024/02/29 16:16:25;;;;;;;;;;;;;;;;;;5110124;28;20631;-83
2024/02/29 16:18:53;;;;;;;;;;;;;;;;;;5104984;28;19963;-83
2024/02/29 16:21:20;;;;;;;;;;;;;;;;;;5108410;28;20022;-83
2024/02/29 16:23:47;;;;;;;;;;;;;;;;;;5105272;28;20022;-85
2024/02/29 16:26:15;;;;;;;;;;;;;;;;;;5111555;28;20450;-86
2024/02/29 16:28:42;;;;;;;;;;;;;;;;;;5104749;28;19938;-84
2024/02/29 16:31:09;;;;;;;;;;;;;;;;;;5102532;28;19955;-81
2024/02/29 16:33:36;;;;;;;;;;;;;;;;;;5109226;28;19928;-85
2024/02/29 16:36:03;;;;;;;;;;;;;;;;;;5108477;28;20375;-83
2024/02/29 16:38:31;;;;;;;;;;;;;;;;;;5106314;28;19924;-84
2024/02/29 16:40:59;;;;;;;;;;;;;;;;;;5112405;28;19951;-83
2024/02/29 16:43:28;;;;;;;;;;;;;;;;;;5109807;28;20034;-83
2024/02/29 16:45:55;;;;;;;;;;;;;;;;;;5112598;28;19972;-83